Time;durP1;ratioP1;P1;durP2;ratioP2;P2;SDS_P1;SDS_P2;PMS_P1;PMS_P2;Temp;Humidity;BMP_temperature;BMP_pressure;BME280_temperature;BME280_humidity;BME280_pressure;Samples;Min_cycle;Max_cycle;Signal;HPM_P1;HPM_P2
2021/01/20 00:03:14;;;;;;;13.80;8.70;;;7.20;92.30;;;;;;6174837;23;20013;-91
2021/01/20 00:06:12;;;;;;;14.95;8.23;;;7.20;92.20;;;;;;6160094;23;20100;-91
2021/01/20 00:08:47;;;;;;;13.32;8.88;;;7.20;92.20;;;;;;6116193;23;20067;-91
2021/01/20 00:11:18;;;;;;;14.95;9.15;;;7.20;92.20;;;;;;6161306;23;20024;-90
2021/01/20 00:13:52;;;;;;;10.07;7.90;;;7.20;92.10;;;;;;6185751;23;20008;-92
2021/01/20 00:19:59;;;;;;;10.10;7.72;;;7.20;92.20;;;;;;6165279;23;20027;-92
2021/01/20 00:25:58;;;;;;;;;;;;;;;;;;;;;
2021/01/20 00:29:05;;;;;;;;;;;;;;;;;;;;;
2021/01/20 00:31:49;;;;;;;14.77;8.48;;;7.20;92.20;;;;;;6166662;23;20526;-91
2021/01/20 00:34:42;;;;;;;13.02;8.02;;;7.20;92.20;;;;;;6160194;23;20422;-91
2021/01/20 00:37:21;;;;;;;;;;;;;;;;;;;;;
2021/01/20 00:40:11;;;;;;;11.13;7.55;;;7.10;92.20;;;;;;6161948;23;20165;-92
2021/01/20 00:42:45;;;;;;;12.27;8.23;;;7.20;92.30;;;;;;6115760;23;20013;-90
2021/01/20 00:45:14;;;;;;;13.73;7.88;;;7.10;92.10;;;;;;6159701;23;20083;-90
2021/01/20 00:48:04;;;;;;;13.52;8.45;;;7.10;92.10;;;;;;6159357;23;20012;-89
2021/01/20 00:50:43;;;;;;;13.18;7.68;;;7.10;92.10;;;;;;6160282;23;20395;-94
2021/01/20 00:53:22;;;;;;;11.25;7.47;;;7.10;92.20;;;;;;6137906;23;20012;-92
2021/01/20 00:56:00;;;;;;;9.02;6.65;;;7.00;92.10;;;;;;6136205;23;20024;-91
2021/01/20 00:58:30;;;;;;;10.82;7.60;;;7.10;92.10;;;;;;6135760;23;20005;-89
2021/01/20 01:01:21;;;;;;;11.10;6.82;;;7.10;92.10;;;;;;6134451;23;20005;-90
2021/01/20 01:03:55;;;;;;;10.43;7.50;;;7.10;92.10;;;;;;6140464;23;20055;-90
2021/01/20 01:06:26;;;;;;;11.68;7.05;;;7.10;92.30;;;;;;6137830;23;20013;-90
2021/01/20 01:09:39;;;;;;;;;;;;;;;;;;;;;
2021/01/20 01:12:23;;;;;;;;;;;;;;;;;;;;;
2021/01/20 01:15:22;;;;;;;;;;;;;;;;;;;;;
2021/01/20 01:17:51;;;;;;;9.63;5.75;;;7.10;91.80;;;;;;6186453;23;20072;-91
2021/01/20 01:20:27;;;;;;;10.70;6.72;;;7.10;91.80;;;;;;6159970;23;20025;-90
2021/01/20 01:23:39;;;;;;;10.05;6.07;;;7.00;91.80;;;;;;6160963;23;20482;-91
2021/01/20 01:26:31;;;;;;;;;;;;;;;;;;;;;
2021/01/20 01:29:12;;;;;;;;;;;;;;;;;;;;;
2021/01/20 01:31:59;;;;;;;;;;;;;;;;;;;;;
2021/01/20 01:34:59;;;;;;;8.35;5.40;;;7.00;91.80;;;;;;6163729;23;20494;-91
2021/01/20 01:37:37;;;;;;;8.75;5.45;;;7.00;91.80;;;;;;6158854;23;20067;-92
2021/01/20 01:40:25;;;;;;;9.70;5.95;;;7.00;91.80;;;;;;6184606;23;20051;-91
2021/01/20 01:43:23;;;;;;;10.73;6.13;;;7.00;91.80;;;;;;6112471;23;20427;-90
2021/01/20 01:46:08;;;;;;;10.07;6.18;;;7.00;91.80;;;;;;6143429;23;20013;-91
2021/01/20 01:48:39;;;;;;;10.55;5.95;;;7.00;91.70;;;;;;6116282;23;20009;-91
2021/01/20 01:54:19;;;;;;;11.35;6.28;;;7.00;91.60;;;;;;6149726;23;20443;-90
2021/01/20 01:57:17;;;;;;;;;;;;;;;;;;;;;
2021/01/20 02:00:10;;;;;;;;;;;;;;;;;;;;;
2021/01/20 02:02:51;;;;;;;;;;;;;;;;;;;;;
2021/01/20 02:05:29;;;;;;;13.20;6.13;;;7.00;91.50;;;;;;6163372;23;20084;-91
2021/01/20 02:08:05;;;;;;;9.27;5.78;;;7.00;91.50;;;;;;6159773;23;20084;-90
2021/01/20 02:10:57;;;;;;;8.38;6.20;;;7.00;91.50;;;;;;6159718;23;20105;-91
2021/01/20 02:16:40;;;;;;;11.73;5.93;;;7.00;91.50;;;;;;6179859;23;20016;-92
2021/01/20 02:19:57;;;;;;;10.90;6.20;;;7.00;91.50;;;;;;6159432;23;20001;-90
2021/01/20 02:22:34;;;;;;;8.63;5.55;;;7.00;91.40;;;;;;6151070;23;20013;-90
2021/01/20 02:25:42;;;;;;;8.80;5.60;;;7.00;91.40;;;;;;6159831;23;20096;-92
2021/01/20 02:28:37;;;;;;;7.70;5.65;;;7.00;91.40;;;;;;6159554;23;20052;-90
2021/01/20 02:31:07;;;;;;;8.52;5.97;;;7.00;91.40;;;;;;6184887;23;20001;-90
2021/01/20 02:34:14;;;;;;;9.18;5.05;;;6.90;91.40;;;;;;6159535;23;20001;-91
2021/01/20 02:37:17;;;;;;;10.40;5.68;;;7.00;91.50;;;;;;6160155;23;20382;-91
2021/01/20 02:39:49;;;;;;;9.23;5.75;;;7.00;91.50;;;;;;6141555;23;20012;-93
2021/01/20 02:42:49;;;;;;;;;;;;;;;;;;;;;
2021/01/20 02:45:26;;;;;;;;;;;;;;;;;;;;;
2021/01/20 02:48:01;;;;;;;10.05;6.28;;;7.00;91.50;;;;;;6185712;23;20121;-91
2021/01/20 02:50:46;;;;;;;;;;;;;;;;;;;;;
2021/01/20 02:53:41;;;;;;;8.32;5.50;;;7.00;91.50;;;;;;6185866;23;20088;-90
2021/01/20 02:56:48;;;;;;;9.30;6.07;;;7.00;91.90;;;;;;6138779;23;20021;-90
2021/01/20 02:59:44;;;;;;;9.65;5.82;;;7.00;91.60;;;;;;6184173;23;20055;-90
2021/01/20 03:02:25;;;;;;;8.57;5.90;;;7.00;91.60;;;;;;6160177;23;20028;-90
2021/01/20 03:05:01;;;;;;;10.07;5.82;;;7.00;91.60;;;;;;6135360;23;20390;-92
2021/01/20 03:07:55;;;;;;;;;;;;;;;;;;;;;
2021/01/20 03:10:36;;;;;;;8.32;5.13;;;7.00;91.60;;;;;;6186472;23;20076;-92
2021/01/20 03:13:14;;;;;;;9.30;5.78;;;7.00;91.70;;;;;;6161140;23;20017;-90
2021/01/20 03:16:04;;;;;;;8.10;5.32;;;7.00;91.70;;;;;;6184910;23;20059;-92
2021/01/20 03:19:04;;;;;;;7.63;5.45;;;7.00;91.70;;;;;;6151897;23;20092;-90
2021/01/20 03:22:03;;;;;;;9.70;5.55;;;7.00;91.80;;;;;;6187253;23;20024;-89
2021/01/20 03:24:45;;;;;;;9.13;5.63;;;7.00;91.80;;;;;;6186210;23;20048;-91
2021/01/20 03:27:23;;;;;;;8.82;5.30;;;7.00;91.80;;;;;;6161633;23;20303;-90
2021/01/20 03:32:43;;;;;;;8.60;5.60;;;7.00;91.80;;;;;;6171033;23;20087;-90
2021/01/20 03:35:57;;;;;;;8.15;5.03;;;7.10;91.80;;;;;;6160411;23;20001;-91
2021/01/20 03:38:48;;;;;;;;;;;;;;;;;;;;;
2021/01/20 03:41:44;;;;;;;;;;;;;;;;;;;;;
2021/01/20 03:44:36;;;;;;;8.38;5.35;;;7.00;91.80;;;;;;6162707;23;20371;-92
2021/01/20 03:47:33;;;;;;;9.38;5.25;;;7.00;91.80;;;;;;6160422;23;20009;-91
2021/01/20 03:50:30;;;;;;;;;;;;;;;;;;;;;
2021/01/20 03:53:18;;;;;;;7.72;4.38;;;7.00;91.80;;;;;;6185592;23;20399;-91
2021/01/20 03:55:44;;;;;;;8.77;4.85;;;7.10;91.80;;;;;;6117815;23;20028;-91
2021/01/20 03:58:48;;;;;;;6.68;4.72;;;7.10;91.80;;;;;;6154941;23;20435;-91
2021/01/20 04:01:23;;;;;;;6.88;4.18;;;7.10;91.80;;;;;;6154989;23;20005;-91
2021/01/20 04:04:17;;;;;;;8.13;4.20;;;7.10;91.80;;;;;;6156555;23;20010;-91
2021/01/20 04:06:55;;;;;;;;;;;;;;;;;;;;;
2021/01/20 04:09:59;;;;;;;7.00;3.95;;;7.20;91.60;;;;;;6157751;23;20081;-90
2021/01/20 04:12:55;;;;;;;6.05;3.83;;;7.20;91.60;;;;;;6144468;23;20048;-89
2021/01/20 04:15:44;;;;;;;9.85;4.07;;;7.20;91.60;;;;;;6133757;23;20378;-91
2021/01/20 04:18:30;;;;;;;6.80;3.60;;;7.20;91.60;;;;;;6154615;23;20092;-90
2021/01/20 04:21:17;;;;;;;;;;;;;;;;;;;;;
2021/01/20 04:26:43;;;;;;;8.32;4.63;;;7.20;91.50;;;;;;6176829;23;20017;-90
2021/01/20 04:30:03;;;;;;;;;;;;;;;;;;;;;
2021/01/20 04:32:49;;;;;;;5.60;3.85;;;7.30;91.40;;;;;;6172165;23;20088;-90
2021/01/20 04:35:47;;;;;;;6.68;4.13;;;7.30;91.40;;;;;;6132314;23;20486;-91
2021/01/20 04:38:15;;;;;;;6.47;3.95;;;7.30;91.30;;;;;;6180072;23;20416;-90
2021/01/20 04:41:31;;;;;;;;;;;;;;;;;;;;;
2021/01/20 04:44:07;;;;;;;5.55;3.92;;;7.30;91.20;;;;;;6155237;23;20411;-90
2021/01/20 04:47:15;;;;;;;;;;;;;;;;;;;;;
2021/01/20 04:50:03;;;;;;;;;;;;;;;;;;;;;
2021/01/20 04:52:41;;;;;;;7.45;4.25;;;7.40;91.00;;;;;;6156972;23;20085;-90
2021/01/20 04:55:35;;;;;;;7.00;3.88;;;7.40;91.00;;;;;;6154747;23;20013;-90
2021/01/20 04:58:29;;;;;;;7.60;4.10;;;7.40;91.00;;;;;;6180686;23;20140;-90
2021/01/20 05:01:14;;;;;;;6.05;3.80;;;7.50;91.00;;;;;;6143790;23;20009;-90
2021/01/20 05:04:22;;;;;;;;;;;;;;;;;;;;;
2021/01/20 05:07:10;;;;;;;7.97;4.03;;;7.50;90.90;;;;;;6156355;23;20080;-90
2021/01/20 05:09:46;;;;;;;5.30;3.45;;;7.50;90.90;;;;;;6155677;23;20060;-90
2021/01/20 05:23:45;;;;;;;4.80;3.65;;;7.50;90.70;;;;;;6095377;22;3238215;-90
2021/01/20 05:30:11;;;;;;;;;;;;;;;;;;;;;
2021/01/20 05:33:12;;;;;;;4.97;3.50;;;8.00;90.20;;;;;;6254276;23;20118;-91
2021/01/20 05:36:38;;;;;;;5.45;3.28;;;7.90;90.30;;;;;;6226621;23;20000;-92
2021/01/20 05:39:26;;;;;;;4.15;3.28;;;7.80;90.40;;;;;;6229732;23;20000;-92
2021/01/20 05:42:20;;;;;;;;;;;;;;;;;;;;;
2021/01/20 05:45:39;;;;;;;;;;;;;;;;;;;;;
2021/01/20 05:48:38;;;;;;;5.68;3.47;;;7.70;90.50;;;;;;6252962;23;20087;-92
2021/01/20 05:51:41;;;;;;;4.75;3.00;;;7.60;90.50;;;;;;6226636;23;20020;-90
2021/01/20 05:54:59;;;;;;;6.20;3.42;;;7.60;90.50;;;;;;6228228;23;20004;-91
2021/01/20 05:57:40;;;;;;;5.70;3.65;;;7.60;90.60;;;;;;6210745;23;20008;-90
2021/01/20 06:01:09;;;;;;;4.53;3.00;;;7.60;90.50;;;;;;6183461;23;20012;-92
2021/01/20 06:03:48;;;;;;;;;;;;;;;;;;;;;
2021/01/20 06:09:58;;;;;;;;;;;;;;;;;;;;;
2021/01/20 06:12:46;;;;;;;5.03;2.92;;;7.60;90.20;;;;;;6254707;23;20087;-93
2021/01/20 06:15:27;;;;;;;;;;;;;;;;;;;;;
2021/01/20 06:18:24;;;;;;;;;;;;;;;;;;;;;
2021/01/20 06:21:30;;;;;;;5.38;2.92;;;7.70;90.00;;;;;;6188232;23;20684;-92
2021/01/20 06:24:27;;;;;;;4.78;2.97;;;7.70;90.10;;;;;;6168652;23;20095;-92
2021/01/20 06:28:03;;;;;;;5.22;2.80;;;7.70;89.90;;;;;;6189989;23;20012;-94
2021/01/20 06:31:35;;;;;;;;;;;;;;;;;;;;;
2021/01/20 06:40:47;;;;;;;4.75;2.83;;;7.70;90.00;;;;;;6175867;23;20008;-92
2021/01/20 06:44:14;;;;;;;3.40;2.22;;;7.60;89.80;;;;;;6190365;23;20032;-93
2021/01/20 06:47:28;;;;;;;;;;;;;;;;;;;;;
2021/01/20 06:50:51;;;;;;;5.75;2.85;;;7.70;89.90;;;;;;6191416;23;20080;-92
2021/01/20 06:53:49;;;;;;;;;;;;;;;;;;;;;
2021/01/20 07:03:27;;;;;;;2.75;1.98;;;7.70;90.00;;;;;;6170488;23;20009;-93
2021/01/20 07:06:02;;;;;;;4.00;2.50;;;7.70;90.00;;;;;;6216152;23;20008;-91
2021/01/20 07:09:03;;;;;;;4.10;2.60;;;7.70;89.90;;;;;;6188837;23;20015;-94
2021/01/20 07:12:35;;;;;;;;;;;;;;;;;;;;;
2021/01/20 07:18:42;;;;;;;;;;;;;;;;;;;;;
2021/01/20 07:21:21;;;;;;;3.55;2.58;;;7.70;89.80;;;;;;6190274;23;20112;-93
2021/01/20 07:24:12;;;;;;;3.67;2.35;;;7.70;89.90;;;;;;6193905;23;20023;-93
2021/01/20 07:27:26;;;;;;;4.30;2.27;;;7.80;89.90;;;;;;6190565;23;20004;-92
2021/01/20 07:30:25;;;;;;;;;;;;;;;;;;;;;
2021/01/20 07:58:23;;;;;;;;;;;;;;;;;;;;;
2021/01/20 08:38:10;;;;;;;;;;;;;;;;;;;;;
2021/01/20 16:47:53;;;;;;;3.13;2.03;;;9.20;77.40;;;;;;5082020;28;20391;-89
2021/01/20 16:50:27;;;;;;;5.20;2.92;;;9.10;77.60;;;;;;5054606;28;20067;-89
2021/01/20 16:56:08;;;;;;;3.67;1.70;;;9.00;77.50;;;;;;5069415;28;20036;-90
2021/01/20 16:58:48;;;;;;;2.55;1.60;;;9.00;77.40;;;;;;5053768;28;20029;-90
2021/01/20 17:01:19;;;;;;;2.90;1.90;;;9.00;77.40;;;;;;5053571;28;20123;-91
2021/01/20 17:03:56;;;;;;;2.33;1.50;;;9.00;77.40;;;;;;5041590;28;20092;-91
2021/01/20 17:06:27;;;;;;;2.67;1.40;;;9.00;77.40;;;;;;5053183;28;20131;-88
2021/01/20 17:09:18;;;;;;;;;;;;;;;;;;;;;
2021/01/20 17:14:53;;;;;;;5.13;2.00;;;9.00;77.20;;;;;;5052925;28;20040;-89
2021/01/20 17:23:25;;;;;;;3.22;1.95;;;9.00;77.10;;;;;;5061386;28;20032;-89
2021/01/20 17:26:39;;;;;;;;;;;;;;;;;;;;;
2021/01/20 17:32:44;;;;;;;2.67;1.50;;;9.00;77.10;;;;;;5051696;28;20036;-91
2021/01/20 17:35:47;;;;;;;2.28;1.65;;;9.00;77.10;;;;;;5072986;28;20041;-89
2021/01/20 17:39:00;;;;;;;;;;;;;;;;;;;;;
2021/01/20 17:41:56;;;;;;;2.78;1.70;;;8.90;77.20;;;;;;5072575;28;20040;-90
2021/01/20 17:44:57;;;;;;;4.35;1.95;;;8.90;77.30;;;;;;5073729;28;20062;-90
2021/01/20 17:48:17;;;;;;;;;;;;;;;;;;;;;
2021/01/20 17:51:25;;;;;;;;;;;;;;;;;;;;;
2021/01/20 17:58:20;;;;;;;;;;;;;;;;;;;;;
2021/01/20 18:04:29;;;;;;;;;;;;;;;;;;;;;
2021/01/20 18:07:14;;;;;;;;;;;;;;;;;;;;;
2021/01/20 18:13:41;;;;;;;3.25;2.13;;;8.60;77.70;;;;;;5059125;28;20036;-91
2021/01/20 18:16:35;;;;;;;2.28;1.60;;;8.60;77.70;;;;;;5048097;28;20056;-89
2021/01/20 18:23:09;;;;;;;;;;;;;;;;;;;;;
2021/01/20 18:25:38;;;;;;;5.78;3.05;;;8.60;77.80;;;;;;5063688;28;20040;-90
2021/01/20 18:28:28;;;;;;;4.13;2.75;;;8.60;77.90;;;;;;5069529;28;20522;-88
2021/01/20 18:31:08;;;;;;;;;;;;;;;;;;;;;
2021/01/20 18:34:18;;;;;;;;;;;;;;;;;;;;;
2021/01/20 18:37:12;;;;;;;4.03;2.03;;;8.50;77.80;;;;;;5061017;28;20044;-89
2021/01/20 18:40:14;;;;;;;;;;;;;;;;;;;;;
2021/01/20 18:42:48;;;;;;;4.05;1.80;;;8.50;77.80;;;;;;5064086;28;20029;-90
2021/01/20 18:45:47;;;;;;;;;;;;;;;;;;;;;
2021/01/20 18:48:57;;;;;;;2.42;1.85;;;8.50;77.70;;;;;;5069117;28;20046;-90
2021/01/20 18:51:38;;;;;;;2.65;2.03;;;8.50;77.70;;;;;;5058870;28;20063;-91
2021/01/20 18:57:18;;;;;;;3.85;1.85;;;8.50;77.80;;;;;;5058121;28;20045;-90
2021/01/20 18:59:57;;;;;;;2.72;1.73;;;8.50;77.70;;;;;;5045001;28;20036;-91
2021/01/20 19:02:48;;;;;;;2.47;1.60;;;8.50;77.80;;;;;;5058481;28;20029;-90
2021/01/20 19:08:47;;;;;;;2.47;1.80;;;8.50;77.90;;;;;;5070552;28;20403;-91
2021/01/20 19:14:36;;;;;;;2.55;1.67;;;8.50;77.80;;;;;;5078819;28;20037;-91
2021/01/20 19:17:17;;;;;;;3.50;2.20;;;8.50;77.80;;;;;;5072089;28;20467;-90
2021/01/20 19:20:09;;;;;;;3.13;2.25;;;8.50;77.60;;;;;;5055398;28;20058;-90
2021/01/20 19:26:08;;;;;;;3.25;2.00;;;8.60;77.50;;;;;;5052197;28;20102;-91
2021/01/20 19:32:26;;;;;;;;;;;;;;;;;;;;;
2021/01/20 19:41:24;;;;;;;;;;;;;;;;;;;;;
2021/01/20 19:44:13;;;;;;;4.18;2.40;;;8.60;77.60;;;;;;5065855;28;20034;-90
2021/01/20 19:47:19;;;;;;;;;;;;;;;;;;;;;
2021/01/20 19:53:11;;;;;;;3.57;2.00;;;8.70;77.80;;;;;;5066274;28;20515;-91
2021/01/20 19:56:17;;;;;;;3.53;1.75;;;8.70;77.80;;;;;;5068004;28;20490;-90
2021/01/20 19:59:12;;;;;;;2.50;1.63;;;8.70;77.70;;;;;;5050794;28;20098;-90
2021/01/20 20:02:19;;;;;;;4.55;2.00;;;8.70;77.80;;;;;;5063256;28;20066;-89
2021/01/20 20:05:08;;;;;;;2.75;1.75;;;8.80;77.80;;;;;;5087147;28;20060;-90
2021/01/20 20:08:13;;;;;;;2.67;1.60;;;8.80;77.80;;;;;;5068494;28;20033;-89
2021/01/20 20:10:48;;;;;;;3.17;1.83;;;8.80;77.80;;;;;;5048117;28;20040;-91
2021/01/20 20:13:34;;;;;;;;;;;;;;;;;;;;;
2021/01/20 20:16:53;;;;;;;;;;;;;;;;;;;;;
2021/01/20 20:19:52;;;;;;;4.40;2.35;;;8.90;77.70;;;;;;5066110;28;20082;-91
2021/01/20 20:22:51;;;;;;;3.42;1.67;;;8.90;77.90;;;;;;5065362;28;20032;-91
2021/01/20 20:25:52;;;;;;;;;;;;;;;;;;;;;
2021/01/20 20:44:24;;;;;;;;;;;;;;;;;;;;;
2021/01/20 20:50:11;;;;;;;3.22;1.70;;;9.00;78.80;;;;;;5028607;28;20379;-89
2021/01/20 20:53:03;;;;;;;;;;;;;;;;;;;;;
2021/01/20 20:55:34;;;;;;;2.95;1.85;;;9.00;79.00;;;;;;5028835;28;20039;-90
2021/01/20 20:58:18;;;;;;;;;;;;;;;;;;;;;
2021/01/20 21:00:47;;;;;;;4.88;1.90;;;9.10;79.20;;;;;;5027501;28;20021;-88
2021/01/20 21:06:49;;;;;;;4.63;2.00;;;9.20;79.50;;;;;;5004315;28;20372;-91
2021/01/20 21:09:35;;;;;;;7.05;3.65;;;9.20;79.50;;;;;;4962065;28;20039;-90
2021/01/20 21:12:49;;;;;;;6.35;3.10;;;9.30;79.60;;;;;;5015318;28;20029;-92
2021/01/20 21:15:18;;;;;;;5.07;2.17;;;9.30;79.70;;;;;;5021357;28;20039;-91
2021/01/20 21:21:40;;;;;;;4.68;1.90;;;9.40;79.90;;;;;;5039420;28;20124;-90
2021/01/20 21:24:32;;;;;;;4.00;1.80;;;9.40;80.10;;;;;;5015738;28;20037;-90
2021/01/20 21:27:15;;;;;;;3.25;2.00;;;9.40;80.20;;;;;;5015101;28;20029;-90
2021/01/20 21:30:10;;;;;;;3.78;1.80;;;9.40;80.50;;;;;;5024783;28;20048;-89
2021/01/20 21:32:52;;;;;;;3.20;1.90;;;9.40;80.60;;;;;;5026058;28;20091;-90
2021/01/20 21:38:54;;;;;;;;;;;;;;;;;;;;;
2021/01/20 21:41:40;;;;;;;3.22;1.60;;;9.40;81.30;;;;;;5043181;28;20047;-89
2021/01/20 21:45:03;;;;;;;3.80;1.98;;;9.40;81.50;;;;;;5022944;28;20025;-90
2021/01/20 21:51:11;;;;;;;4.82;1.73;;;9.40;81.70;;;;;;5067334;28;20052;-90
2021/01/20 22:00:06;;;;;;;3.83;1.55;;;9.40;81.90;;;;;;5071676;28;20032;-91
2021/01/20 22:05:42;;;;;;;;;;;;;;;;;;;;;
2021/01/20 22:11:50;;;;;;;4.82;1.63;;;9.50;82.20;;;;;;5049464;28;20036;-90
2021/01/20 22:14:56;;;;;;;2.85;1.50;;;9.50;82.20;;;;;;5064984;28;20048;-90
2021/01/20 22:18:06;;;;;;;3.40;1.70;;;9.50;82.30;;;;;;5009140;28;20035;-91
2021/01/20 22:30:19;;;;;;;;;;;;;;;;;;;;;
2021/01/20 22:32:57;;;;;;;2.42;1.05;;;9.60;82.30;;;;;;5061404;28;20040;-91
2021/01/20 22:36:16;;;;;;;3.05;1.10;;;9.60;82.40;;;;;;5051449;28;20123;-90
2021/01/20 22:39:25;;;;;;;3.63;1.50;;;9.60;82.30;;;;;;5052868;28;20033;-90
2021/01/20 22:41:53;;;;;;;2.75;1.75;;;9.60;82.30;;;;;;5068583;28;20380;-90
2021/01/20 22:44:41;;;;;;;1.67;1.25;;;9.70;82.20;;;;;;5039350;28;20144;-89
2021/01/20 22:47:15;;;;;;;3.28;1.63;;;9.70;82.10;;;;;;5039804;28;20063;-88
2021/01/20 22:50:10;;;;;;;;;;;;;;;;;;;;;
2021/01/20 22:56:25;;;;;;;;;;;;;;;;;;;;;
2021/01/20 22:58:58;;;;;;;;;;;9.80;81.80;;;;;;5038341;28;20041;-90
2021/01/20 23:01:44;;;;;;;2.83;1.50;;;9.80;81.80;;;;;;5028879;28;19917;-91
2021/01/20 23:04:26;;;;;;;3.10;1.20;;;9.80;81.90;;;;;;5031986;28;20358;-90
2021/01/20 23:07:21;;;;;;;;;;;;;;;;;;;;;
2021/01/20 23:10:06;;;;;;;3.80;1.75;;;9.80;81.80;;;;;;5022508;28;20124;-89
2021/01/20 23:12:53;;;;;;;1.73;1.25;;;9.80;81.70;;;;;;5017570;28;20068;-90
2021/01/20 23:15:41;;;;;;;2.25;1.20;;;9.80;81.70;;;;;;5029274;28;20097;-90
2021/01/20 23:18:19;;;;;;;3.13;1.10;;;9.80;81.70;;;;;;5029502;28;20537;-91
2021/01/20 23:20:55;;;;;;;3.38;1.40;;;9.80;81.80;;;;;;5026381;28;20037;-90
2021/01/20 23:23:24;;;;;;;2.50;1.20;;;9.80;81.80;;;;;;5008534;28;20037;-89
2021/01/20 23:25:55;;;;;;;2.35;1.23;;;9.80;81.70;;;;;;5037307;28;20037;-90
2021/01/20 23:28:45;;;;;;;;;;;;;;;;;;;;;
2021/01/20 23:31:39;;;;;;;1.77;1.02;;;9.80;81.70;;;;;;5030381;28;20204;-91
2021/01/20 23:34:23;;;;;;;2.67;1.48;;;9.80;81.70;;;;;;5017285;28;20021;-90
2021/01/20 23:37:21;;;;;;;2.22;1.30;;;9.80;81.70;;;;;;5009693;28;20083;-88
2021/01/20 23:40:43;;;;;;;3.42;1.25;;;9.80;81.60;;;;;;5026718;28;20047;-89
2021/01/20 23:43:20;;;;;;;3.45;1.65;;;9.70;81.50;;;;;;5032425;28;20037;-88
2021/01/20 23:46:13;;;;;;;2.47;1.17;;;9.70;81.50;;;;;;5016589;28;20047;-88
2021/01/20 23:48:39;;;;;;;4.28;1.33;;;9.70;81.50;;;;;;5038275;28;20068;-89
2021/01/20 23:52:01;;;;;;;;;;;;;;;;;;;;;
2021/01/20 23:54:50;;;;;;;1.70;1.10;;;9.70;81.20;;;;;;5056637;28;20028;-88
2021/01/20 23:57:49;;;;;;;;;;;;;;;;;;;;;
